Achtergracht — PCCL — position and weather

sailwx.info

Track history (hours):
 
Tides and Currents Weather Stations Pressure Air Temp Water Temp Dewpoint Dewpoint Depression Visibility Wind Speed Wind Dir Waves Ship Positions

Achtergracht

Last reported at 2016-Jun-26 07:06 UTC. Time now 2016-Jun-26 11:56 UTC.
Position N 48°57' W 005°08'.

Length 130 m; beam 19 m; draft 9 m.

Type: Cargo ship. MMSI: 244601000.

Date/timePositionNaut miles runAvg speedWind from/ knotsBaromVisibWave heightAir tempDewpointWater temp
2016-Jun-26 07:06N 48°57' W 005°08'813.8
2016-Jun-26 06:33N 48°53' W 005°18'  
2016-Jun-23 21:33N 39°06' W 009°51'1211.1
2016-Jun-23 20:27N 38°53' W 009°51'1011.0
2016-Jun-23 19:33N 38°44' W 009°51'1111.4
2016-Jun-23 18:34N 38°32' W 009°48'1111.2
2016-Jun-23 17:33N 38°21' W 009°44'1111.0
2016-Jun-23 16:31N 38°10' W 009°41'1111.5
2016-Jun-23 15:33N 37°59' W 009°38'1212.4
2016-Jun-23 14:33N 37°47' W 009°34'1212.4
2016-Jun-23 13:33N 37°35' W 009°31'2612.0
2016-Jun-23 11:25N 37°10' W 009°24'4311.0
2016-Jun-23 07:28N 36°39' W 008°47'5012.5
2016-Jun-23 03:27N 36°24' W 007°47'4812.3
2016-Jun-22 23:33N 36°09' W 006°51'6210.3
2016-Jun-22 17:31N 35°58' W 005°35'1111.0
2016-Jun-22 16:33N 36°01' W 005°22'22311.7
2016-Jun-21 21:33N 36°48' W 000°51'1312.5
2016-Jun-21 20:33N 36°52' W 000°37'2512.4
2016-Jun-21 18:33N 37°01' W 000°07'1312.7
2016-Jun-21 17:33N 37°05' E 000°08'1412.7
2016-Jun-21 16:27N 37°09' E 000°25'  
2016-Jun-19 07:07N 37°07' E 012°29'610.0
2016-Jun-19 06:31N 37°04' E 012°36'1010.2
2016-Jun-19 05:33N 37°01' E 012°48'1010.4
2016-Jun-19 04:33N 36°57' E 012°60'1110.9
2016-Jun-19 03:33N 36°53' E 013°12'1010.5
2016-Jun-19 02:33N 36°49' E 013°25'1010.1
2016-Jun-19 01:34N 36°46' E 013°36'1010.2
2016-Jun-19 00:33N 36°42' E 013°48'1010.2
2016-Jun-18 23:34N 36°38' E 013°60'1010.3
2016-Jun-18 22:33N 36°35' E 014°12'1010.2
2016-Jun-18 21:33N 36°31' E 014°24'1010.0
2016-Jun-18 20:33N 36°28' E 014°36'1010.3
2016-Jun-18 19:33N 36°27' E 014°49'1110.5
2016-Jun-18 18:33N 36°27' E 015°02'1010.2
2016-Jun-18 17:33N 36°26' E 015°14'1010.1
2016-Jun-18 16:33N 36°26' E 015°27'1010.1
2016-Jun-18 15:33N 36°26' E 015°39'36410.3
2016-Jun-17 04:20N 36°25' E 023°12'8 9.9
2016-Jun-17 03:33N 36°30' E 023°19'1010.3
2016-Jun-17 02:33N 36°38' E 023°26'1010.3
2016-Jun-17 01:32N 36°46' E 023°34'1210.5
2016-Jun-17 00:25N 36°55' E 023°44'910.8
2016-Jun-16 23:33N 37°02' E 023°52'1110.6
2016-Jun-16 22:29N 37°11' E 024°01'1010.4
2016-Jun-16 21:32N 37°19' E 024°09'2610.6
2016-Jun-16 19:06N 37°40' E 024°27'810.5
2016-Jun-16 18:19N 37°47' E 024°31'2910.6
2016-Jun-16 15:33N 38°14' E 024°47'1210.2
2016-Jun-16 14:22N 38°25' E 024°53'  
Track history (hours):
 
Tides and Currents Weather Stations Pressure Air Temp Water Temp Dewpoint Dewpoint Depression Visibility Wind Speed Wind Dir Waves Ship Positions

Achtergracht

Last reported at 2016-Jun-26 07:06 UTC. Time now 2016-Jun-26 11:56 UTC.
Position N 48°57' W 005°08'.

Length 130 m; beam 19 m; draft 9 m.

Type: Cargo ship. MMSI: 244601000.

Date/timePositionNaut miles runAvg speedWind from/ knotsBaromVisibWave heightAir tempDewpointWater temp
2016-Jun-26 07:06N 48°57' W 005°08'813.8
2016-Jun-26 06:33N 48°53' W 005°18'  
2016-Jun-23 21:33N 39°06' W 009°51'1211.1
2016-Jun-23 20:27N 38°53' W 009°51'1011.0
2016-Jun-23 19:33N 38°44' W 009°51'1111.4
2016-Jun-23 18:34N 38°32' W 009°48'1111.2
2016-Jun-23 17:33N 38°21' W 009°44'1111.0
2016-Jun-23 16:31N 38°10' W 009°41'1111.5
2016-Jun-23 15:33N 37°59' W 009°38'1212.4
2016-Jun-23 14:33N 37°47' W 009°34'1212.4
2016-Jun-23 13:33N 37°35' W 009°31'2612.0
2016-Jun-23 11:25N 37°10' W 009°24'4311.0
2016-Jun-23 07:28N 36°39' W 008°47'5012.5
2016-Jun-23 03:27N 36°24' W 007°47'4812.3
2016-Jun-22 23:33N 36°09' W 006°51'6210.3
2016-Jun-22 17:31N 35°58' W 005°35'1111.0
2016-Jun-22 16:33N 36°01' W 005°22'22311.7
2016-Jun-21 21:33N 36°48' W 000°51'1312.5
2016-Jun-21 20:33N 36°52' W 000°37'2512.4
2016-Jun-21 18:33N 37°01' W 000°07'1312.7
2016-Jun-21 17:33N 37°05' E 000°08'1412.7
2016-Jun-21 16:27N 37°09' E 000°25'  
2016-Jun-19 07:07N 37°07' E 012°29'610.0
2016-Jun-19 06:31N 37°04' E 012°36'1010.2
2016-Jun-19 05:33N 37°01' E 012°48'1010.4
2016-Jun-19 04:33N 36°57' E 012°60'1110.9
2016-Jun-19 03:33N 36°53' E 013°12'1010.5
2016-Jun-19 02:33N 36°49' E 013°25'1010.1
2016-Jun-19 01:34N 36°46' E 013°36'1010.2
2016-Jun-19 00:33N 36°42' E 013°48'1010.2
2016-Jun-18 23:34N 36°38' E 013°60'1010.3
2016-Jun-18 22:33N 36°35' E 014°12'1010.2
2016-Jun-18 21:33N 36°31' E 014°24'1010.0
2016-Jun-18 20:33N 36°28' E 014°36'1010.3
2016-Jun-18 19:33N 36°27' E 014°49'1110.5
2016-Jun-18 18:33N 36°27' E 015°02'1010.2
2016-Jun-18 17:33N 36°26' E 015°14'1010.1
2016-Jun-18 16:33N 36°26' E 015°27'1010.1
2016-Jun-18 15:33N 36°26' E 015°39'36410.3
2016-Jun-17 04:20N 36°25' E 023°12'8 9.9
2016-Jun-17 03:33N 36°30' E 023°19'1010.3
2016-Jun-17 02:33N 36°38' E 023°26'1010.3
2016-Jun-17 01:32N 36°46' E 023°34'1210.5
2016-Jun-17 00:25N 36°55' E 023°44'910.8
2016-Jun-16 23:33N 37°02' E 023°52'1110.6
2016-Jun-16 22:29N 37°11' E 024°01'1010.4
2016-Jun-16 21:32N 37°19' E 024°09'2610.6
2016-Jun-16 19:06N 37°40' E 024°27'810.5
2016-Jun-16 18:19N 37°47' E 024°31'2910.6
2016-Jun-16 15:33N 38°14' E 024°47'1210.2
2016-Jun-16 14:22N 38°25' E 024°53'  

Dump ship's entire track history